Terminal Aerodrome Forecast
Issued by NWS

Current Version | Previous Version | Text Only | Print | Product List | Glossary On
Versions: 1 2 3 4 5 6 7 8 9 10 11 12 13 14 15 16 17 18 19
183
FTUS46 KEKA 301724
TAFCEC
TAF
KCEC 301724Z 3018/0118 30010KT P6SM VCSH SCT009 OVC015
     FM302000 33012G22KT P6SM SCT025
     FM010200 36008KT P6SM SKC=

USA.gov is the U.S. government's official web portal to all federal, state and local government web resources and services.